Time;durP1;ratioP1;P1;durP2;ratioP2;P2;SDS_P1;SDS_P2;PMS_P1;PMS_P2;Temp;Humidity;BMP_temperature;BMP_pressure;BME280_temperature;BME280_humidity;BME280_pressure;Samples;Min_cycle;Max_cycle;Signal;HPM_P1;HPM_P2
2023/06/15 00:00:20;;;;;;;;;;;;;;;21.99;58.83;100644.34;7397906;19;1615;-46
2023/06/15 00:02:49;;;;;;;;;;;;;;;21.96;58.82;100646.50;7410466;19;1203;-45
2023/06/15 00:05:18;;;;;;;;;;;;;;;21.96;58.96;100651.88;7411292;19;949;-46
2023/06/15 00:07:46;;;;;;;;;;;;;;;21.94;58.99;100641.25;7408638;19;1861;-46
2023/06/15 00:10:14;;;;;;;;;;;;;;;21.96;58.90;100644.63;7409467;19;1293;-46
2023/06/15 00:12:42;;;;;;;;;;;;;;;21.97;58.63;100632.88;7410154;19;1372;-45
2023/06/15 00:15:13;;;;;;;;;;;;;;;21.94;58.58;100648.50;7411637;19;1135;-45
2023/06/15 00:17:43;;;;;;;;;;;;;;;21.93;58.65;100647.66;7409695;19;1621;-45
2023/06/15 00:20:12;;;;;;;;;;;;;;;21.92;58.59;100648.66;7409272;19;1221;-45
2023/06/15 00:22:41;;;;;;;;;;;;;;;21.91;58.67;100641.59;7410174;19;1494;-46
2023/06/15 00:25:10;;;;;;;;;;;;;;;21.90;59.02;100642.56;7407613;19;1299;-45
2023/06/15 00:27:39;;;;;;;;;;;;;;;21.91;58.78;100646.13;7409110;19;1866;-45
2023/06/15 00:30:09;;;;;;;;;;;;;;;21.88;58.96;100641.06;7411233;19;955;-46
2023/06/15 00:32:40;;;;;;;;;;;;;;;21.92;59.13;100647.81;7410792;19;1044;-45
2023/06/15 00:35:08;;;;;;;;;;;;;;;21.91;59.50;100640.75;7409069;19;1193;-45
2023/06/15 00:37:37;;;;;;;;;;;;;;;21.91;59.30;100646.13;7408382;19;1563;-45
2023/06/15 00:40:06;;;;;;;;;;;;;;;21.98;59.14;100647.19;7406571;19;1833;-45
2023/06/15 00:42:38;;;;;;;;;;;;;;;21.95;59.43;100642.13;7407741;19;1731;-45
2023/06/15 00:45:07;;;;;;;;;;;;;;;21.94;59.46;100640.41;7410583;19;1107;-45
2023/06/15 00:47:39;;;;;;;;;;;;;;;21.93;59.44;100642.28;7408064;19;1857;-45
2023/06/15 00:50:14;;;;;;;;;;;;;;;21.97;59.29;100643.66;7408341;19;1584;-46
2023/06/15 00:52:43;;;;;;;;;;;;;;;21.97;59.37;100650.88;7407928;19;1629;-45
2023/06/15 00:55:13;;;;;;;;;;;;;;;21.94;59.39;100640.41;7409258;19;1576;-45
2023/06/15 00:57:44;;;;;;;;;;;;;;;21.93;59.48;100641.44;7408868;19;1261;-45
2023/06/15 01:00:14;;;;;;;;;;;;;;;21.93;59.23;100627.97;7408111;19;1254;-46
2023/06/15 01:02:43;;;;;;;;;;;;;;;21.92;59.28;100624.41;7409417;19;1330;-46
2023/06/15 01:05:16;;;;;;;;;;;;;;;21.93;59.25;100619.91;7408749;19;1848;-46
2023/06/15 01:07:47;;;;;;;;;;;;;;;21.89;59.16;100616.69;7406243;19;1862;-45
2023/06/15 01:10:17;;;;;;;;;;;;;;;21.91;59.20;100619.22;7408238;19;1208;-46
2023/06/15 01:12:50;;;;;;;;;;;;;;;21.93;59.18;100614.53;7401383;19;1560;-46
2023/06/15 01:15:19;;;;;;;;;;;;;;;21.96;59.10;100624.94;7402113;19;1232;-46
2023/06/15 01:17:48;;;;;;;;;;;;;;;21.94;59.19;100629.66;7400827;19;1540;-45
2023/06/15 01:20:21;;;;;;;;;;;;;;;21.95;59.21;100616.03;7400378;19;1543;-46
2023/06/15 01:22:55;;;;;;;;;;;;;;;21.95;58.95;100620.59;7401888;19;1368;-45
2023/06/15 01:25:26;;;;;;;;;;;;;;;21.94;58.99;100629.66;7397849;19;1457;-45
2023/06/15 01:28:01;;;;;;;;;;;;;;;21.88;59.09;100625.75;7399868;19;1845;-45
2023/06/15 01:30:30;;;;;;;;;;;;;;;21.84;58.76;100624.38;7400421;19;1484;-45
2023/06/15 01:32:59;;;;;;;;;;;;;;;21.87;59.03;100623.22;7401875;19;1407;-45
2023/06/15 01:35:27;;;;;;;;;;;;;;;21.90;59.16;100629.13;7402422;19;1027;-45
2023/06/15 01:37:55;;;;;;;;;;;;;;;21.91;58.96;100619.22;7401647;19;1515;-45
2023/06/15 01:40:24;;;;;;;;;;;;;;;21.95;59.05;100628.66;7398587;19;1928;-47
2023/06/15 01:42:53;;;;;;;;;;;;;;;21.94;58.83;100624.28;7402013;19;1458;-45
2023/06/15 01:45:24;;;;;;;;;;;;;;;21.94;58.83;100626.97;7400833;19;1648;-45
2023/06/15 01:47:53;;;;;;;;;;;;;;;21.92;58.90;100623.59;7397278;19;1855;-45
2023/06/15 01:50:21;;;;;;;;;;;;;;;21.93;58.95;100628.81;7398077;19;1451;-45
2023/06/15 01:52:49;;;;;;;;;;;;;;;21.85;58.70;100616.16;7399840;19;1281;-45
2023/06/15 01:55:18;;;;;;;;;;;;;;;21.81;58.66;100616.63;7399512;19;1209;-45
2023/06/15 01:57:46;;;;;;;;;;;;;;;21.78;58.56;100612.38;7399929;19;1657;-46
2023/06/15 02:00:15;;;;;;;;;;;;;;;21.78;58.55;100615.06;7400080;19;1542;-46
2023/06/15 02:02:46;;;;;;;;;;;;;;;21.89;59.01;100623.91;7400713;19;1028;-45
2023/06/15 02:05:14;;;;;;;;;;;;;;;21.83;58.92;100622.69;7400363;19;1083;-46
2023/06/15 02:07:43;;;;;;;;;;;;;;;21.85;58.74;100624.22;7398801;19;1849;-45
2023/06/15 02:10:12;;;;;;;;;;;;;;;21.84;58.56;100630.63;7397124;19;1484;-46
2023/06/15 02:12:40;;;;;;;;;;;;;;;21.75;58.49;100620.78;7399846;19;1529;-46
2023/06/15 02:15:09;;;;;;;;;;;;;;;21.76;58.63;100621.63;7401239;19;1114;-45
2023/06/15 02:17:40;;;;;;;;;;;;;;;21.77;58.68;100610.72;7397513;19;1822;-45
2023/06/15 02:20:11;;;;;;;;;;;;;;;21.78;58.47;100625.84;7399812;19;1790;-46
2023/06/15 02:22:40;;;;;;;;;;;;;;;21.77;58.29;100621.47;7399154;19;1969;-45
2023/06/15 02:25:09;;;;;;;;;;;;;;;21.77;58.29;100620.63;7394117;19;1826;-46
2023/06/15 02:27:37;;;;;;;;;;;;;;;21.75;58.28;100623.47;7399037;19;1849;-46
2023/06/15 02:30:06;;;;;;;;;;;;;;;21.78;58.31;100631.22;7400986;19;1036;-45
2023/06/15 02:32:36;;;;;;;;;;;;;;;21.77;58.23;100629.56;7400544;19;969;-46
2023/06/15 02:35:05;;;;;;;;;;;;;;;21.79;58.25;100621.31;7399695;19;1522;-46
2023/06/15 02:37:35;;;;;;;;;;;;;;;21.78;58.58;100625.84;7396700;19;1449;-45
2023/06/15 02:40:06;;;;;;;;;;;;;;;21.77;58.42;100629.56;7398310;19;1170;-45
2023/06/15 02:42:35;;;;;;;;;;;;;;;21.77;58.16;100634.94;7398601;19;1563;-45
2023/06/15 02:45:03;;;;;;;;;;;;;;;21.72;58.40;100621.09;7398344;19;1158;-45
2023/06/15 02:47:31;;;;;;;;;;;;;;;21.74;58.31;100624.47;7397821;19;1857;-46
2023/06/15 02:50:00;;;;;;;;;;;;;;;21.77;58.04;100632.25;7397936;19;1539;-46
2023/06/15 02:52:30;;;;;;;;;;;;;;;21.74;58.15;100629.00;7396913;19;1532;-46
2023/06/15 02:55:01;;;;;;;;;;;;;;;21.70;58.19;100624.94;7398339;19;1574;-46
2023/06/15 02:57:30;;;;;;;;;;;;;;;21.63;58.19;100620.19;7399091;19;1821;-46
2023/06/15 02:59:58;;;;;;;;;;;;;;;21.68;57.96;100643.09;7399655;19;1962;-45
2023/06/15 03:02:27;;;;;;;;;;;;;;;21.63;58.09;100622.03;7397962;19;1522;-46
2023/06/15 03:04:57;;;;;;;;;;;;;;;21.68;58.24;100617.03;7397979;19;1619;-46
2023/06/15 03:07:26;;;;;;;;;;;;;;;21.61;58.08;100618.66;7396890;19;1937;-45
2023/06/15 03:09:55;;;;;;;;;;;;;;;21.60;58.41;100625.88;7398097;19;1426;-46
2023/06/15 03:12:26;;;;;;;;;;;;;;;21.60;58.56;100627.72;7398462;19;1759;-46
2023/06/15 03:14:54;;;;;;;;;;;;;;;21.65;58.42;100630.81;7399364;19;1011;-46
2023/06/15 03:17:24;;;;;;;;;;;;;;;21.74;58.66;100629.00;7395050;19;1885;-47
2023/06/15 03:19:53;;;;;;;;;;;;;;;21.71;58.76;100619.41;7397540;19;1683;-48
2023/06/15 03:22:23;;;;;;;;;;;;;;;21.74;58.64;100629.00;7397353;19;1470;-47
2023/06/15 03:24:54;;;;;;;;;;;;;;;21.70;58.32;100628.47;7396704;19;1150;-46
2023/06/15 03:27:23;;;;;;;;;;;;;;;21.69;58.17;100632.19;7397468;19;1848;-46
2023/06/15 03:29:54;;;;;;;;;;;;;;;21.69;58.28;100634.88;7397022;19;1490;-46
2023/06/15 03:32:22;;;;;;;;;;;;;;;21.77;58.23;100632.25;7396090;19;1477;-46
2023/06/15 03:34:50;;;;;;;;;;;;;;;21.73;58.37;100636.25;7396030;19;1528;-46
2023/06/15 03:37:18;;;;;;;;;;;;;;;21.74;58.15;100629.84;7394428;19;1548;-46
2023/06/15 03:39:47;;;;;;;;;;;;;;;21.77;57.99;100624.16;7397738;19;1048;-46
2023/06/15 03:42:15;;;;;;;;;;;;;;;21.75;57.86;100639.63;7396390;19;1324;-46
2023/06/15 03:44:44;;;;;;;;;;;;;;;21.79;57.78;100627.53;7396631;19;1536;-45
2023/06/15 03:47:15;;;;;;;;;;;;;;;21.81;57.89;100630.91;7396906;19;1843;-46
2023/06/15 03:49:43;;;;;;;;;;;;;;;21.85;57.84;100626.91;7396124;19;1257;-46
2023/06/15 03:52:11;;;;;;;;;;;;;;;21.81;57.56;100633.63;7395826;19;1637;-46
2023/06/15 03:54:40;;;;;;;;;;;;;;;21.87;57.31;100629.44;7395268;19;1079;-46
2023/06/15 03:57:08;;;;;;;;;;;;;;;21.95;57.38;100631.34;7396125;19;1490;-46
2023/06/15 03:59:36;;;;;;;;;;;;;;;21.94;57.58;100624.28;7395562;19;1996;-46
2023/06/15 04:02:05;;;;;;;;;;;;;;;21.93;57.67;100636.91;7395175;19;1629;-45
2023/06/15 04:04:36;;;;;;;;;;;;;;;21.98;57.65;100636.41;7395695;19;1627;-46
2023/06/15 04:07:04;;;;;;;;;;;;;;;21.94;57.99;100626.97;7395259;19;1598;-45
2023/06/15 04:09:33;;;;;;;;;;;;;;;22.00;58.70;100640.66;7394132;19;1862;-46
2023/06/15 04:12:01;;;;;;;;;;;;;;;22.19;57.86;100634.19;7395546;19;1225;-45
2023/06/15 04:14:30;;;;;;;;;;;;;;;22.00;58.52;100634.41;7394907;19;1354;-47
2023/06/15 04:16:58;;;;;;;;;;;;;;;22.15;57.76;100630.13;7395390;19;1687;-46
2023/06/15 04:19:27;;;;;;;;;;;;;;;22.19;58.22;100623.41;7396506;19;1166;-46
2023/06/15 04:21:57;;;;;;;;;;;;;;;22.08;58.98;100631.75;7395592;19;1033;-45
2023/06/15 04:24:26;;;;;;;;;;;;;;;22.10;58.29;100623.53;7394734;19;1633;-46
2023/06/15 04:26:57;;;;;;;;;;;;;;;22.12;59.10;100641.19;7395125;19;1484;-45
2023/06/15 04:29:29;;;;;;;;;;;;;;;22.15;59.33;100627.44;7391958;19;1857;-46
2023/06/15 04:31:57;;;;;;;;;;;;;;;21.98;59.60;100622.94;7390663;19;1285;-45
2023/06/15 04:34:26;;;;;;;;;;;;;;;21.88;59.45;100631.13;7391131;19;1295;-45
2023/06/15 04:36:58;;;;;;;;;;;;;;;22.22;58.67;100627.63;7389892;19;1170;-45
2023/06/15 04:39:27;;;;;;;;;;;;;;;22.20;58.70;100641.28;7394360;19;1940;-45
2023/06/15 04:41:57;;;;;;;;;;;;;;;22.22;58.66;100633.00;7391647;19;1642;-45
2023/06/15 04:44:25;;;;;;;;;;;;;;;22.39;58.69;100629.44;7393627;19;1731;-45
2023/06/15 04:46:54;;;;;;;;;;;;;;;22.27;58.81;100629.91;7396693;19;1549;-46
2023/06/15 04:49:23;;;;;;;;;;;;;;;22.31;58.55;100621.31;7400967;19;1859;-46
2023/06/15 04:51:51;;;;;;;;;;;;;;;;;;7401741;19;1949;-46
2023/06/15 04:54:21;;;;;;;;;;;;;;;22.39;58.81;100628.59;7398276;19;1525;-46
2023/06/15 04:56:50;;;;;;;;;;;;;;;22.27;59.12;100643.38;7397142;19;1525;-45
2023/06/15 04:59:18;;;;;;;;;;;;;;;22.29;59.34;100638.66;7398318;19;1566;-46
2023/06/15 05:01:47;;;;;;;;;;;;;;;22.31;59.08;100645.56;7398796;19;1265;-46
2023/06/15 05:04:15;;;;;;;;;;;;;;;22.45;59.00;100638.72;7401142;19;1271;-45
2023/06/15 05:06:43;;;;;;;;;;;;;;;22.42;59.19;100644.44;6880539;19;10000253;-45
2023/06/15 05:09:11;;;;;;;;;;;;;;;22.26;60.32;100638.97;7391683;19;1869;-45
2023/06/15 05:11:42;;;;;;;;;;;;;;;22.45;59.58;100646.81;7393815;19;1614;-45
2023/06/15 05:14:10;;;;;;;;;;;;;;;22.50;59.69;100633.72;7395107;19;1528;-45
2023/06/15 05:16:39;;;;;;;;;;;;;;;22.65;59.22;100631.22;7395478;19;1546;-45
2023/06/15 05:19:07;;;;;;;;;;;;;;;22.81;58.73;100633.97;7393958;19;1505;-45
2023/06/15 05:21:36;;;;;;;;;;;;;;;23.05;58.05;100634.25;7393304;19;1954;-46
2023/06/15 05:24:04;;;;;;;;;;;;;;;23.10;57.87;100626.47;7392038;19;1898;-46
2023/06/15 05:26:32;;;;;;;;;;;;;;;23.08;57.93;100631.19;7391124;19;2392;-45
2023/06/15 05:29:03;;;;;;;;;;;;;;;23.22;57.86;100635.97;7392837;19;1854;-45
2023/06/15 05:31:31;;;;;;;;;;;;;;;23.30;57.72;100637.81;7393219;19;1793;-45
2023/06/15 05:34:00;;;;;;;;;;;;;;;23.31;57.46;100644.91;7391006;19;1541;-45
2023/06/15 05:36:30;;;;;;;;;;;;;;;23.38;57.22;100644.06;7392334;19;1533;-45
2023/06/15 05:38:59;;;;;;;;;;;;;;;23.20;58.30;100648.78;7394057;19;1469;-45
2023/06/15 05:41:27;;;;;;;;;;;;;;;23.13;58.58;100653.13;7393208;19;1509;-46
2023/06/15 05:43:55;;;;;;;;;;;;;;;23.35;58.53;100638.16;7393169;19;1821;-45
2023/06/15 05:46:26;;;;;;;;;;;;;;;23.24;58.27;100623.16;7394500;19;1582;-46
2023/06/15 05:48:54;;;;;;;;;;;;;;;23.21;58.83;100636.97;7391446;19;1846;-45
2023/06/15 05:51:23;;;;;;;;;;;;;;;23.28;58.40;100629.91;7393352;19;1771;-45
2023/06/15 05:53:51;;;;;;;;;;;;;;;23.20;59.07;100670.38;7391954;19;1489;-45
2023/06/15 05:56:19;;;;;;;;;;;;;;;23.30;58.53;100632.41;7393163;19;1739;-45
2023/06/15 05:58:47;;;;;;;;;;;;;;;23.42;58.38;100631.94;7390267;19;1590;-45
2023/06/15 06:01:16;;;;;;;;;;;;;;;23.28;59.04;100640.69;7391630;19;1467;-46
2023/06/15 06:03:47;;;;;;;;;;;;;;;23.35;58.99;100647.09;7392254;19;1612;-45
2023/06/15 06:06:15;;;;;;;;;;;;;;;23.30;59.16;100648.59;7391455;19;2221;-45
2023/06/15 06:08:44;;;;;;;;;;;;;;;23.33;58.77;100626.69;7392771;19;1922;-46
2023/06/15 06:11:12;;;;;;;;;;;;;;;23.40;58.69;100633.97;7392107;19;1553;-46
2023/06/15 06:13:40;;;;;;;;;;;;;;;23.31;58.11;100640.34;7392046;19;1494;-46
2023/06/15 06:16:09;;;;;;;;;;;;;;;23.29;58.09;100636.13;7393880;19;1266;-45
2023/06/15 08:23:35;;;;;;;;;;;;;;;23.56;57.28;100600.72;7323562;19;3279;-80
2023/06/15 08:26:03;;;;;;;;;;;;;;;23.59;56.86;100607.63;7379685;19;1665;-80
2023/06/15 08:28:32;;;;;;;;;;;;;;;23.61;56.65;100587.53;7396950;19;1743;-80
2023/06/15 08:31:00;;;;;;;;;;;;;;;23.58;57.13;100587.91;7398122;19;1827;-78
2023/06/15 08:33:28;;;;;;;;;;;;;;;23.58;57.28;100600.56;7396463;19;1812;-78
2023/06/15 08:35:57;;;;;;;;;;;;;;;23.69;57.72;100600.19;7396199;19;1740;-78
2023/06/15 08:38:25;;;;;;;;;;;;;;;23.58;57.53;100597.88;7394815;19;1651;-77
2023/06/15 08:40:56;;;;;;;;;;;;;;;23.50;57.55;100601.41;7399244;19;1653;-77
2023/06/15 08:43:25;;;;;;;;;;;;;;;23.42;57.49;100606.81;7398931;19;1484;-80
2023/06/15 08:45:56;;;;;;;;;;;;;;;23.35;57.23;100586.91;7398630;19;1849;-78
2023/06/15 08:48:25;;;;;;;;;;;;;;;23.50;56.85;100592.47;7394823;19;1550;-78
2023/06/15 08:50:53;;;;;;;;;;;;;;;23.48;57.86;100586.41;7398421;19;1813;-77
2023/06/15 08:53:24;;;;;;;;;;;;;;;23.57;57.04;100601.56;7395805;19;1578;-78
2023/06/15 08:55:52;;;;;;;;;;;;;;;23.59;58.04;100580.63;7399524;19;1576;-78
2023/06/15 08:58:23;;;;;;;;;;;;;;;23.58;57.44;100589.75;7399612;19;1572;-78
2023/06/15 09:00:52;;;;;;;;;;;;;;;23.64;57.83;100575.59;7399965;19;1653;-78
2023/06/15 09:03:21;;;;;;;;;;;;;;;23.70;57.09;100574.91;7399694;19;1369;-77
2023/06/15 09:05:50;;;;;;;;;;;;;;;23.71;56.74;100584.66;7396868;19;1853;-78
2023/06/15 09:08:18;;;;;;;;;;;;;;;23.81;56.62;100582.69;7396960;19;1546;-77
2023/06/15 09:10:46;;;;;;;;;;;;;;;23.83;56.69;100574.38;7397714;19;1331;-77
2023/06/15 09:13:17;;;;;;;;;;;;;;;23.86;56.32;100573.22;7398250;19;1561;-77
2023/06/15 09:16:00;;;;;;;;;;;;;;;23.82;56.15;100565.44;7399021;19;1241;-77
2023/06/15 09:18:29;;;;;;;;;;;;;;;23.82;56.06;100568.16;7397634;19;1570;-77
2023/06/15 09:21:00;;;;;;;;;;;;;;;23.72;55.89;100594.47;7397029;19;1383;-77
2023/06/15 09:23:28;;;;;;;;;;;;;;;23.78;55.77;100580.31;7396435;19;1478;-77
2023/06/15 09:25:56;;;;;;;;;;;;;;;23.79;55.48;100565.78;7397382;19;1829;-77
2023/06/15 09:28:28;;;;;;;;;;;;;;;23.60;55.43;100576.94;7396332;19;1615;-78
2023/06/15 09:31:00;;;;;;;;;;;;;;;23.51;56.05;100578.78;7397051;19;1540;-81
2023/06/15 09:33:32;;;;;;;;;;;;;;;23.57;56.05;100559.22;7398104;19;1492;-81
2023/06/15 09:36:02;;;;;;;;;;;;;;;23.66;55.12;100560.06;7399724;19;1286;-80
2023/06/15 09:38:32;;;;;;;;;;;;;;;23.75;55.34;100556.31;7400831;19;1424;-80
2023/06/15 09:41:04;;;;;;;;;;;;;;;23.67;55.12;100548.22;7401517;19;1213;-80
2023/06/15 09:43:34;;;;;;;;;;;;;;;23.63;55.24;100560.38;7400867;19;1962;-80
2023/06/15 09:46:11;;;;;;;;;;;;;;;23.72;55.18;100556.66;7399168;19;1873;-80
2023/06/15 09:48:40;;;;;;;;;;;;;;;23.60;56.54;100549.94;7398408;19;1828;-80
2023/06/15 09:51:10;;;;;;;;;;;;;;;23.84;55.31;100538.28;7396092;19;1451;-80
2023/06/15 09:53:39;;;;;;;;;;;;;;;23.91;55.16;100533.03;7400803;19;1547;-81
2023/06/15 09:56:08;;;;;;;;;;;;;;;23.87;55.11;100539.78;7400858;19;1129;-80
2023/06/15 09:58:36;;;;;;;;;;;;;;;23.88;54.94;100544.19;7400275;19;1942;-79
2023/06/15 10:01:07;;;;;;;;;;;;;;;23.65;56.20;100544.03;7396041;19;1548;-80
2023/06/15 10:03:36;;;;;;;;;;;;;;;23.63;55.84;100533.41;7399703;19;1470;-81
2023/06/15 10:06:09;;;;;;;;;;;;;;;23.55;56.02;100536.09;7396219;19;1895;-80
2023/06/15 10:08:40;;;;;;;;;;;;;;;23.48;56.78;100532.44;7400491;19;1417;-82
2023/06/15 10:11:09;;;;;;;;;;;;;;;23.40;56.86;100531.41;7398039;19;1336;-81
2023/06/15 10:13:42;;;;;;;;;;;;;;;23.51;56.39;100537.47;7399373;19;1740;-80
2023/06/15 10:16:15;;;;;;;;;;;;;;;23.43;56.36;100528.34;7398749;19;1447;-81
2023/06/15 10:18:45;;;;;;;;;;;;;;;23.41;56.56;100530.38;7398781;19;1365;-81
2023/06/15 10:21:14;;;;;;;;;;;;;;;23.40;56.61;100515.22;7400729;19;1638;-82
2023/06/15 10:23:44;;;;;;;;;;;;;;;23.41;56.52;100516.88;7395598;19;1332;-81
2023/06/15 10:26:12;;;;;;;;;;;;;;;23.39;56.28;100524.31;7395229;19;1849;-79
2023/06/15 10:28:44;;;;;;;;;;;;;;;23.48;56.39;100516.22;7394698;19;1481;-79
2023/06/15 10:31:19;;;;;;;;;;;;;;;23.59;56.44;100519.38;7394333;19;1405;-79
2023/06/15 10:33:52;;;;;;;;;;;;;;;23.51;56.13;100522.09;7393843;19;1400;-79
2023/06/15 10:36:25;;;;;;;;;;;;;;;23.47;56.39;100526.16;7378503;19;1496;-79
2023/06/15 10:38:57;;;;;;;;;;;;;;;23.63;56.00;100514.50;7394064;19;1301;-79
2023/06/15 10:41:26;;;;;;;;;;;;;;;23.51;55.94;100502.38;7393188;19;1499;-80
2023/06/15 10:44:01;;;;;;;;;;;;;;;23.49;56.37;100482.81;7393461;19;1466;-79
2023/06/15 10:46:32;;;;;;;;;;;;;;;23.69;55.90;100512.97;7394725;19;1839;-81
2023/06/15 10:49:05;;;;;;;;;;;;;;;23.74;55.63;100499.81;7393603;19;1451;-81
2023/06/15 10:51:35;;;;;;;;;;;;;;;23.57;55.80;100482.78;7393469;19;1405;-81
2023/06/15 10:54:05;;;;;;;;;;;;;;;23.51;56.42;100496.97;7326769;19;12041;-81
2023/06/15 10:56:33;;;;;;;;;;;;;;;23.35;57.18;100490.59;7393912;19;1693;-82
2023/06/15 10:59:04;;;;;;;;;;;;;;;23.55;56.87;100490.22;7394285;19;1409;-80
2023/06/15 11:01:35;;;;;;;;;;;;;;;23.76;56.33;100486.97;7395339;19;1921;-81
2023/06/15 11:04:04;;;;;;;;;;;;;;;23.56;56.42;100490.06;7395536;19;1886;-80
2023/06/15 11:06:33;;;;;;;;;;;;;;;23.52;57.00;100482.50;7394119;19;1849;-80
2023/06/15 11:09:04;;;;;;;;;;;;;;;23.82;56.04;100473.63;7394921;19;1647;-80
2023/06/15 11:11:34;;;;;;;;;;;;;;;23.88;55.77;100479.38;7395729;19;1822;-80
2023/06/15 11:14:03;;;;;;;;;;;;;;;23.87;55.55;100464.16;7393060;19;1552;-80
2023/06/15 11:16:32;;;;;;;;;;;;;;;23.77;55.77;100467.03;7393498;19;1728;-80
2023/06/15 11:19:23;;;;;;;;;;;;;;;23.59;57.11;100470.81;7391647;19;1476;-78
2023/06/15 11:21:59;;;;;;;;;;;;;;;23.47;57.43;100472.19;7392022;19;1441;-80
2023/06/15 11:24:29;;;;;;;;;;;;;;;23.48;57.16;100454.16;7389782;19;1460;-79
2023/06/15 11:27:01;;;;;;;;;;;;;;;23.53;56.88;100454.47;7392631;19;1102;-78
2023/06/15 11:29:33;;;;;;;;;;;;;;;23.57;57.26;100453.09;7395633;19;1030;-78
2023/06/15 11:32:03;;;;;;;;;;;;;;;23.72;56.58;100443.28;7399964;19;1548;-78
2023/06/15 11:34:31;;;;;;;;;;;;;;;23.80;56.18;100448.66;7401238;19;1129;-78
2023/06/15 11:37:03;;;;;;;;;;;;;;;23.81;56.82;100457.59;7401575;19;1914;-78
2023/06/15 11:39:32;;;;;;;;;;;;;;;23.96;56.46;100452.31;7398641;19;1881;-78
2023/06/15 11:42:01;;;;;;;;;;;;;;;24.02;56.06;100446.22;7398625;19;1669;-78
2023/06/15 11:44:30;;;;;;;;;;;;;;;23.91;55.56;100439.31;7400451;19;1726;-79
2023/06/15 11:46:59;;;;;;;;;;;;;;;23.77;56.44;100440.91;7398243;19;1834;-78
2023/06/15 11:49:34;;;;;;;;;;;;;;;23.66;56.55;100433.19;7400595;19;1492;-78
2023/06/15 11:52:05;;;;;;;;;;;;;;;23.55;56.36;100449.75;7400438;19;1481;-79
2023/06/15 11:54:34;;;;;;;;;;;;;;;23.51;56.23;100440.31;7399871;19;1316;-78
2023/06/15 11:57:02;;;;;;;;;;;;;;;23.57;55.74;100442.31;7399994;19;1801;-78
2023/06/15 11:59:30;;;;;;;;;;;;;;;23.74;55.77;100426.91;7401111;19;1223;-78
2023/06/15 12:02:00;;;;;;;;;;;;;;;23.72;55.40;100415.44;7400428;19;1448;-78
2023/06/15 12:04:32;;;;;;;;;;;;;;;23.74;55.55;100438.53;7401609;19;1043;-78
2023/06/15 12:07:04;;;;;;;;;;;;;;;23.82;55.54;100414.25;7398509;19;1840;-79
2023/06/15 12:09:35;;;;;;;;;;;;;;;23.77;55.19;100424.72;7400910;19;1936;-78
2023/06/15 12:12:04;;;;;;;;;;;;;;;23.79;55.41;100422.66;7398542;19;1827;-78
2023/06/15 12:14:32;;;;;;;;;;;;;;;23.87;55.45;100424.50;7397919;19;1838;-78
2023/06/15 12:17:00;;;;;;;;;;;;;;;23.74;55.73;100413.41;7398410;19;1834;-79
2023/06/15 12:19:29;;;;;;;;;;;;;;;23.74;56.20;100416.13;7400445;19;1476;-78
2023/06/15 12:22:02;;;;;;;;;;;;;;;23.71;56.93;100429.94;7399908;19;1744;-79
2023/06/15 12:24:30;;;;;;;;;;;;;;;23.88;56.33;100426.19;7396866;19;1508;-78
2023/06/15 12:27:02;;;;;;;;;;;;;;;23.98;55.63;100420.59;7396562;19;1855;-77
2023/06/15 12:29:31;;;;;;;;;;;;;;;23.91;55.80;100414.19;7400357;19;1134;-78
2023/06/15 12:32:00;;;;;;;;;;;;;;;23.84;55.65;100413.22;7401047;19;1861;-78
2023/06/15 12:34:29;;;;;;;;;;;;;;;24.00;55.39;100396.94;7398586;19;1787;-78
2023/06/15 12:36:57;;;;;;;;;;;;;;;24.02;55.46;100403.00;7397624;19;1839;-78
2023/06/15 12:39:28;;;;;;;;;;;;;;;24.12;55.62;100395.50;7399317;19;1441;-78
2023/06/15 12:42:03;;;;;;;;;;;;;;;23.94;55.86;100400.34;7398267;19;1413;-78
2023/06/15 12:44:34;;;;;;;;;;;;;;;23.75;55.94;100407.81;7396848;19;1483;-79
2023/06/15 12:47:02;;;;;;;;;;;;;;;23.71;56.15;100390.28;7395758;19;1869;-78
2023/06/15 12:49:31;;;;;;;;;;;;;;;23.63;56.33;100390.31;7395859;19;1528;-78
2023/06/15 12:52:00;;;;;;;;;;;;;;;23.59;56.67;100394.38;7397436;19;1578;-78
2023/06/15 12:54:28;;;;;;;;;;;;;;;23.56;56.49;100389.34;7398915;19;1852;-78
2023/06/15 12:56:56;;;;;;;;;;;;;;;23.61;56.69;100392.34;7395106;19;1472;-78
2023/06/15 12:59:27;;;;;;;;;;;;;;;23.59;56.65;100389.00;7396481;19;1494;-78
2023/06/15 13:01:56;;;;;;;;;;;;;;;23.70;56.17;100391.31;7398828;19;1175;-78
2023/06/15 13:04:27;;;;;;;;;;;;;;;23.74;55.97;100381.84;7399135;19;1461;-78
2023/06/15 13:06:56;;;;;;;;;;;;;;;23.67;56.74;100385.41;7397495;19;1872;-78
2023/06/15 13:09:24;;;;;;;;;;;;;;;23.66;56.71;100381.88;7396225;19;1749;-78
2023/06/15 13:11:53;;;;;;;;;;;;;;;23.63;56.38;100380.38;7398305;19;1933;-79
2023/06/15 13:14:21;;;;;;;;;;;;;;;23.55;55.86;100379.56;7397877;19;1542;-78
2023/06/15 13:16:53;;;;;;;;;;;;;;;23.53;55.33;100384.28;7399957;19;1751;-78
2023/06/15 13:19:23;;;;;;;;;;;;;;;23.65;55.28;100382.88;7396161;19;1563;-78
2023/06/15 13:21:51;;;;;;;;;;;;;;;23.63;55.55;100398.41;7396832;19;1505;-78
2023/06/15 13:24:24;;;;;;;;;;;;;;;23.56;56.58;100403.69;6367933;19;10000706;-79
2023/06/15 13:26:53;;;;;;;;;;;;;;;23.54;57.34;100404.88;7389033;19;1853;-78
2023/06/15 13:29:21;;;;;;;;;;;;;;;23.62;57.30;100399.44;7392821;19;1920;-77
2023/06/15 13:31:52;;;;;;;;;;;;;;;23.61;57.50;100395.88;7392532;19;1838;-78
2023/06/15 13:34:20;;;;;;;;;;;;;;;23.61;58.19;100386.97;7392068;19;1774;-78
2023/06/15 13:36:49;;;;;;;;;;;;;;;23.67;58.47;100385.41;7390773;19;1776;-77
2023/06/15 13:39:17;;;;;;;;;;;;;;;23.50;59.95;100398.16;7391206;19;1735;-77
2023/06/15 13:41:46;;;;;;;;;;;;;;;23.56;61.00;100384.78;7392087;19;1427;-78
2023/06/15 13:44:14;;;;;;;;;;;;;;;23.60;59.96;100390.69;7392352;19;1472;-78
2023/06/15 13:46:43;;;;;;;;;;;;;;;23.70;59.65;100385.91;7393783;19;1853;-78
2023/06/15 13:49:14;;;;;;;;;;;;;;;23.68;59.52;100387.94;7392814;19;1405;-78
2023/06/15 13:51:42;;;;;;;;;;;;;;;23.59;59.70;100383.59;7390845;19;1558;-78
2023/06/15 13:54:10;;;;;;;;;;;;;;;23.57;59.51;100377.53;7391591;19;1488;-78
2023/06/15 13:56:39;;;;;;;;;;;;;;;23.61;59.51;100371.59;7391822;19;1556;-78
2023/06/15 13:59:07;;;;;;;;;;;;;;;23.62;59.63;100372.47;7393940;19;1377;-78
2023/06/15 14:01:35;;;;;;;;;;;;;;;23.71;59.09;100376.78;7394139;19;1229;-78
2023/06/15 14:04:04;;;;;;;;;;;;;;;23.58;59.71;100379.22;7392961;19;1797;-78
2023/06/15 14:06:35;;;;;;;;;;;;;;;23.60;59.24;100378.03;7392604;19;1859;-78
2023/06/15 14:09:03;;;;;;;;;;;;;;;23.61;59.72;100370.75;7392977;19;1751;-78
2023/06/15 14:11:31;;;;;;;;;;;;;;;23.71;59.51;100376.78;7393563;19;1633;-78
2023/06/15 14:14:00;;;;;;;;;;;;;;;23.62;59.69;100373.28;7391711;19;1529;-78
2023/06/15 14:16:28;;;;;;;;;;;;;;;23.57;60.25;100358.63;7393272;19;1528;-77
2023/06/15 14:18:57;;;;;;;;;;;;;;;23.72;59.67;100377.66;7392753;19;1496;-78
2023/06/15 14:21:26;;;;;;;;;;;;;;;23.71;59.58;100371.38;7393100;19;1500;-78
2023/06/15 14:23:57;;;;;;;;;;;;;;;23.69;59.65;100368.03;7395553;19;2865;-78
2023/06/15 14:26:26;;;;;;;;;;;;;;;23.77;59.80;100376.09;7399212;19;1815;-79
2023/06/15 14:28:54;;;;;;;;;;;;;;;23.53;61.37;100374.34;7400754;19;1484;-79
2023/06/15 14:31:23;;;;;;;;;;;;;;;23.53;61.60;100358.13;7420543;19;1487;-80
2023/06/15 14:33:51;;;;;;;;;;;;;;;23.75;60.23;100366.47;7417216;19;1286;-79
2023/06/15 14:36:19;;;;;;;;;;;;;;;23.62;61.15;100375.16;7410929;19;1214;-79
2023/06/15 14:38:48;;;;;;;;;;;;;;;23.63;60.88;100366.03;7399368;19;1792;-79
2023/06/15 14:41:18;;;;;;;;;;;;;;;23.63;61.00;100366.03;7415523;19;1925;-79
2023/06/15 14:43:47;;;;;;;;;;;;;;;23.76;60.18;100373.56;7426596;19;1145;-79
2023/06/15 14:46:18;;;;;;;;;;;;;;;23.66;60.46;100357.59;7420748;19;1857;-79
2023/06/15 14:48:46;;;;;;;;;;;;;;;23.70;60.20;100369.72;7417299;19;1311;-78
2023/06/15 14:51:15;;;;;;;;;;;;;;;23.73;59.86;100363.94;7411749;19;1369;-79
2023/06/15 14:53:45;;;;;;;;;;;;;;;23.73;59.92;100363.94;7410722;19;1529;-79
2023/06/15 14:56:13;;;;;;;;;;;;;;;23.69;60.23;100370.72;7413146;19;1006;-78
2023/06/15 14:58:44;;;;;;;;;;;;;;;23.74;59.92;100365.66;7415105;19;1777;-78
2023/06/15 15:01:13;;;;;;;;;;;;;;;23.73;59.88;100366.66;7414980;19;1415;-79
2023/06/15 15:03:41;;;;;;;;;;;;;;;23.63;60.36;100357.94;7409743;19;1711;-78